Lalin, Spain
Current Conditions -  °F | °C
As of 11:00 PM on Wednesday 28 Jan 2015 (Local Time) from LEST Reporting Station
Light Fog Light Fog  
Wind Chill: 48°   Ceiling: 100
Heat Index: 48°   Visibility: 1.2mi
Dew Point: 48°   Wind: 3mph
Humidity: 100%   Direction: 280°W
Pressure: 30.27"   Gusts: NA
Location:  42.66°N, 8.11°W
Report Text: LEST 282200Z 28003KT 240V320 2000 R17/1000N BCFG BKN001BKN010 09/09 Q1025 NOSIG
Loading
Personal Weather Stations






























Interactive Weather Map New forecast layout! Learn more

10-Day Weather Forecast

Advertisements
Track Severe Weather on mobile